createdAt,value
2023-03-30T00:01:12.132Z,6.25
2023-03-30T00:03:40.774Z,3.70
2023-03-30T00:06:10.592Z,6.18
2023-03-30T00:08:39.398Z,4.65
2023-03-30T00:11:09.357Z,7.03
2023-03-30T00:13:39.711Z,9.32
2023-03-30T00:16:09.531Z,4.15
2023-03-30T00:18:39.430Z,6.35
2023-03-30T00:21:09.532Z,7.38
2023-03-30T00:23:37.926Z,4.95
2023-03-30T00:26:07.391Z,15.98
2023-03-30T00:28:35.616Z,4.72
2023-03-30T00:31:05.559Z,6.20
2023-03-30T00:33:43.852Z,4.03
2023-03-30T00:36:13.871Z,6.90
2023-03-30T00:38:42.235Z,6.18
2023-03-30T00:41:10.495Z,4.03
2023-03-30T00:43:57.136Z,5.03
2023-03-30T00:46:26.880Z,4.57
2023-03-30T00:48:58.240Z,5.45
2023-03-30T00:51:27.887Z,3.75
2023-03-30T00:54:01.104Z,6.03
2023-03-30T00:56:31.735Z,4.65
2023-03-30T00:59:02.570Z,5.72
2023-03-30T01:01:34.553Z,3.40
2023-03-30T01:06:32.809Z,5.72
2023-03-30T01:09:01.071Z,4.57
2023-03-30T01:11:29.519Z,6.10
2023-03-30T01:14:02.030Z,6.88
2023-03-30T01:16:40.152Z,6.38
2023-03-30T01:19:37.754Z,9.32
2023-03-30T01:22:25.173Z,6.35
2023-03-30T01:25:28.656Z,5.13
2023-03-30T01:28:22.212Z,6.13
2023-03-30T01:31:14.582Z,4.93
2023-03-30T01:34:00.173Z,3.75
2023-03-30T01:36:50.337Z,4.43
2023-03-30T01:39:41.830Z,5.63
2023-03-30T01:42:20.183Z,6.88
2023-03-30T01:44:54.683Z,7.43
2023-03-30T01:47:29.036Z,6.65
2023-03-30T01:50:02.832Z,5.35
2023-03-30T01:52:38.539Z,7.35
2023-03-30T01:55:14.830Z,10.48
2023-03-30T01:57:47.005Z,7.13
2023-03-30T02:00:19.066Z,5.18
2023-03-30T02:02:52.807Z,5.72
2023-03-30T02:05:22.485Z,4.97
2023-03-30T02:07:54.589Z,7.88
2023-03-30T02:10:28.703Z,5.82
2023-03-30T02:12:59.855Z,5.32
2023-03-30T02:15:34.551Z,7.07
2023-03-30T02:18:03.117Z,6.63
2023-03-30T02:20:31.942Z,6.00
2023-03-30T02:23:00.475Z,7.30
2023-03-30T02:25:30.082Z,6.25
2023-03-30T02:27:58.366Z,6.78
2023-03-30T02:30:26.649Z,5.43
2023-03-30T02:32:57.507Z,13.13
2023-03-30T02:35:35.976Z,7.35
2023-03-30T02:38:32.401Z,8.82
2023-03-30T02:41:10.896Z,10.77
2023-03-30T02:43:53.635Z,5.40
2023-03-30T02:46:37.465Z,7.05
2023-03-30T02:49:16.758Z,7.30
2023-03-30T02:51:48.160Z,5.97
2023-03-30T02:54:26.875Z,8.95
2023-03-30T02:57:06.455Z,5.82
2023-03-30T02:59:42.351Z,7.57
2023-03-30T03:02:18.143Z,6.80
2023-03-30T03:04:49.496Z,11.10
2023-03-30T03:07:19.744Z,7.85
2023-03-30T03:09:48.082Z,9.52
2023-03-30T03:12:17.724Z,6.15
2023-03-30T03:14:46.231Z,9.23
2023-03-30T03:17:16.873Z,8.25
2023-03-30T03:19:45.197Z,6.97
2023-03-30T03:22:13.355Z,11.55
2023-03-30T03:24:41.619Z,9.65
2023-03-30T03:27:10.234Z,9.35
2023-03-30T03:29:39.922Z,12.57
2023-03-30T03:32:08.319Z,6.00
2023-03-30T03:34:36.598Z,6.53
2023-03-30T03:37:04.788Z,10.15
2023-03-30T03:39:33.137Z,8.75
2023-03-30T03:42:01.297Z,5.18
2023-03-30T03:44:29.450Z,5.55
2023-03-30T03:46:59.100Z,5.18
2023-03-30T03:49:27.345Z,4.57
2023-03-30T03:51:55.533Z,7.43
2023-03-30T03:54:23.834Z,5.13
2023-03-30T03:56:52.452Z,6.38
2023-03-30T03:59:20.723Z,5.15
2023-03-30T04:01:48.966Z,5.55
2023-03-30T04:04:18.585Z,10.18
2023-03-30T04:06:47.191Z,6.20
2023-03-30T04:09:15.345Z,6.80
2023-03-30T04:11:43.545Z,10.45
2023-03-30T04:14:11.808Z,8.00
2023-03-30T04:16:40.173Z,6.75
2023-03-30T04:19:09.109Z,6.78
2023-03-30T04:21:41.152Z,8.55
2023-03-30T04:24:12.209Z,10.32
2023-03-30T04:26:41.647Z,8.20
2023-03-30T04:29:10.455Z,7.93
2023-03-30T04:31:38.700Z,15.05
2023-03-30T04:34:09.466Z,11.73
2023-03-30T04:36:39.050Z,5.22
2023-03-30T04:39:08.044Z,9.73
2023-03-30T04:41:36.260Z,7.28
2023-03-30T04:44:06.355Z,4.72
2023-03-30T04:46:34.726Z,26.75
2023-03-30T04:49:03.343Z,18.05
2023-03-30T04:51:31.571Z,455.63
2023-03-30T04:54:02.399Z,381.80
2023-03-30T04:56:30.628Z,321.55
2023-03-30T04:58:58.786Z,128.90
2023-03-30T05:01:27.031Z,70.10
2023-03-30T05:03:55.361Z,28.75
2023-03-30T05:06:24.027Z,16.27
2023-03-30T05:08:52.435Z,11.63
2023-03-30T05:11:22.020Z,12.50
2023-03-30T05:13:52.357Z,8.45
2023-03-30T05:16:21.549Z,7.35
2023-03-30T05:18:51.591Z,8.98
2023-03-30T05:21:20.062Z,110.05
2023-03-30T05:23:48.239Z,155.77
2023-03-30T05:26:16.768Z,106.07
2023-03-30T05:28:47.878Z,71.50
2023-03-30T05:31:16.257Z,28.73
2023-03-30T05:33:44.514Z,27.33
2023-03-30T05:36:13.295Z,50.40
2023-03-30T05:38:41.779Z,24.38
2023-03-30T05:41:10.035Z,17.08
2023-03-30T05:43:38.394Z,17.30
2023-03-30T05:46:08.497Z,14.07
2023-03-30T05:48:36.803Z,12.40
2023-03-30T05:51:05.630Z,14.70
2023-03-30T05:53:33.960Z,14.10
2023-03-30T05:56:02.244Z,20.85
2023-03-30T05:58:30.825Z,31.35
2023-03-30T06:00:59.324Z,39.83
2023-03-30T06:03:29.071Z,24.35
2023-03-30T06:05:57.376Z,92.07
2023-03-30T06:08:27.026Z,37.78
2023-03-30T06:10:56.309Z,25.63
2023-03-30T06:13:25.276Z,23.20
2023-03-30T06:15:53.714Z,19.63
2023-03-30T06:18:22.667Z,24.80
2023-03-30T06:20:53.391Z,22.20
2023-03-30T06:23:23.079Z,18.80
2023-03-30T06:25:53.550Z,17.02
2023-03-30T06:28:22.798Z,28.25
2023-03-30T06:30:51.530Z,23.92
2023-03-30T06:33:20.413Z,19.27
2023-03-30T06:35:49.327Z,15.57
2023-03-30T06:38:19.596Z,42.42
2023-03-30T06:40:47.799Z,23.85
2023-03-30T06:43:18.935Z,14.77
2023-03-30T06:45:52.118Z,19.02
2023-03-30T06:48:22.513Z,12.13
2023-03-30T06:50:50.774Z,9.65
2023-03-30T06:53:21.220Z,11.02
2023-03-30T06:55:53.296Z,11.38
2023-03-30T06:58:21.502Z,12.68
2023-03-30T07:00:49.765Z,11.95
2023-03-30T07:03:19.353Z,9.40
2023-03-30T07:05:49.490Z,9.82
2023-03-30T07:08:19.394Z,12.57
2023-03-30T07:10:48.503Z,12.80
2023-03-30T07:13:17.598Z,10.77
2023-03-30T07:15:46.888Z,11.93
2023-03-30T07:18:15.520Z,8.68
2023-03-30T07:20:44.914Z,10.90
2023-03-30T07:23:13.105Z,13.18
2023-03-30T07:25:42.791Z,7.85
2023-03-30T07:28:11.136Z,16.83
2023-03-30T07:30:39.952Z,12.40
2023-03-30T07:33:08.328Z,10.50
2023-03-30T07:35:36.707Z,7.25
2023-03-30T07:38:05.144Z,7.45
2023-03-30T07:40:33.464Z,6.15
2023-03-30T07:43:03.138Z,5.50
2023-03-30T07:45:31.398Z,8.38
2023-03-30T07:47:59.937Z,7.22
2023-03-30T07:50:28.244Z,10.07
2023-03-30T07:52:56.477Z,9.70
2023-03-30T07:55:24.944Z,7.45
2023-03-30T07:57:53.245Z,10.45
2023-03-30T08:00:24.184Z,8.25
2023-03-30T08:02:53.171Z,11.03
2023-03-30T08:05:21.454Z,9.88
2023-03-30T08:07:49.727Z,11.73
2023-03-30T08:10:18.227Z,64.72
2023-03-30T08:12:46.389Z,24.08
2023-03-30T08:15:14.589Z,38.45
2023-03-30T08:17:44.149Z,16.83
2023-03-30T08:20:12.911Z,15.13
2023-03-30T08:22:41.595Z,13.15
2023-03-30T08:25:10.899Z,11.70
2023-03-30T08:27:39.248Z,19.10
2023-03-30T08:30:08.842Z,9.85
2023-03-30T08:32:37.114Z,9.85
2023-03-30T08:35:08.380Z,12.38
2023-03-30T08:37:36.592Z,9.57
2023-03-30T08:40:06.621Z,13.45
2023-03-30T08:42:58.934Z,12.48
2023-03-30T08:45:35.265Z,12.23
2023-03-30T08:48:04.603Z,14.82
2023-03-30T08:50:35.875Z,11.18
2023-03-30T08:53:05.904Z,13.60
2023-03-30T08:55:40.044Z,11.75
2023-03-30T08:58:17.073Z,11.25
2023-03-30T09:00:48.524Z,14.57
2023-03-30T09:03:24.019Z,11.88
2023-03-30T09:06:00.460Z,7.90
2023-03-30T09:08:32.026Z,12.10
2023-03-30T09:11:02.934Z,13.32
2023-03-30T09:13:35.406Z,11.98
2023-03-30T09:16:12.338Z,11.27
2023-03-30T09:18:42.283Z,13.77
2023-03-30T09:21:13.122Z,11.88
2023-03-30T09:23:41.449Z,10.02
2023-03-30T09:26:22.142Z,10.15
2023-03-30T09:28:56.945Z,7.78
2023-03-30T09:31:32.189Z,10.10
2023-03-30T09:34:08.969Z,9.02
2023-03-30T09:36:45.615Z,8.45
2023-03-30T09:39:18.926Z,7.50
2023-03-30T09:42:01.109Z,7.10
2023-03-30T09:44:36.104Z,6.43
2023-03-30T09:47:17.832Z,6.40
2023-03-30T09:49:45.993Z,9.60
2023-03-30T09:52:22.429Z,8.38
2023-03-30T09:54:50.660Z,9.57
2023-03-30T09:57:27.977Z,10.93
2023-03-30T09:59:57.001Z,8.23
2023-03-30T10:02:27.886Z,7.88
2023-03-30T10:05:00.340Z,8.65
2023-03-30T10:07:34.170Z,7.18
2023-03-30T10:10:13.381Z,9.10
2023-03-30T10:12:41.667Z,8.10
2023-03-30T10:15:17.923Z,7.80
2023-03-30T10:17:48.591Z,5.10
2023-03-30T10:20:27.898Z,5.65
2023-03-30T10:23:01.711Z,6.35
2023-03-30T10:25:31.637Z,5.80
2023-03-30T10:28:04.701Z,7.68
2023-03-30T10:30:34.770Z,5.07
2023-03-30T10:33:04.253Z,5.60
2023-03-30T10:35:38.066Z,3.03
2023-03-30T10:38:10.488Z,6.07
2023-03-30T10:40:41.784Z,5.10
2023-03-30T10:43:16.341Z,4.55
2023-03-30T10:45:48.395Z,6.75
2023-03-30T10:48:34.212Z,5.68
2023-03-30T10:58:46.719Z,6.38
2023-03-30T11:01:22.165Z,8.50
2023-03-30T11:03:55.546Z,6.35
2023-03-30T11:06:29.433Z,6.05
2023-03-30T11:08:59.598Z,4.32
2023-03-30T11:11:34.347Z,4.50
2023-03-30T11:14:08.624Z,7.70
2023-03-30T11:16:47.718Z,4.13
2023-03-30T11:19:19.541Z,3.42
2023-03-30T11:21:56.800Z,5.65
2023-03-30T11:24:27.624Z,8.63
2023-03-30T11:27:02.043Z,4.40
2023-03-30T11:29:39.614Z,9.10
2023-03-30T11:32:25.962Z,4.50
2023-03-30T11:35:05.573Z,3.67
2023-03-30T11:37:39.599Z,6.38
2023-03-30T11:40:17.820Z,6.05
2023-03-30T11:42:47.475Z,3.53
2023-03-30T11:45:35.289Z,3.92
2023-03-30T11:48:28.789Z,3.60
2023-03-30T11:51:10.679Z,3.15
2023-03-30T11:53:47.764Z,4.85
2023-03-30T11:56:26.683Z,6.05
2023-03-30T11:59:04.618Z,2.05
2023-03-30T12:01:46.773Z,0.88
2023-03-30T12:04:17.349Z,1.50
2023-03-30T12:06:52.933Z,0.95
2023-03-30T12:09:26.342Z,1.17
2023-03-30T12:11:58.545Z,1.70
2023-03-30T12:14:59.130Z,1.90
2023-03-30T12:17:43.153Z,0.55
2023-03-30T12:20:22.868Z,0.93
2023-03-30T12:22:56.559Z,0.85
2023-03-30T12:25:31.534Z,1.48
2023-03-30T12:28:12.713Z,1.13
2023-03-30T12:30:48.615Z,0.70
2023-03-30T12:33:21.433Z,2.95
2023-03-30T12:35:58.687Z,0.82
2023-03-30T12:38:29.883Z,1.02
2023-03-30T12:41:14.564Z,3.00
2023-03-30T12:44:19.540Z,1.13
2023-03-30T12:46:59.421Z,3.47
2023-03-30T12:49:39.107Z,1.13
2023-03-30T12:52:14.121Z,1.25
2023-03-30T12:55:14.680Z,2.58
2023-03-30T12:58:18.465Z,1.55
2023-03-30T13:01:10.105Z,0.88
2023-03-30T13:03:49.760Z,2.45
2023-03-30T13:06:27.708Z,2.80
2023-03-30T13:08:57.825Z,3.65
2023-03-30T13:11:25.948Z,0.93
2023-03-30T13:13:57.087Z,2.80
2023-03-30T13:17:23.946Z,1.58
2023-03-30T13:20:28.229Z,2.28
2023-03-30T13:23:24.754Z,1.58
2023-03-30T13:26:02.151Z,1.95
2023-03-30T13:28:37.789Z,1.13
2023-03-30T13:31:19.491Z,2.80
2023-03-30T13:33:52.913Z,1.27
2023-03-30T13:36:26.150Z,1.05
2023-03-30T13:39:07.079Z,1.48
2023-03-30T13:41:44.147Z,1.65
2023-03-30T13:44:39.320Z,2.00
2023-03-30T13:47:20.719Z,2.17
2023-03-30T13:49:59.286Z,2.42
2023-03-30T13:52:33.203Z,2.50
2023-03-30T13:55:04.088Z,1.75
2023-03-30T13:57:36.590Z,1.10
2023-03-30T14:00:09.233Z,1.08
2023-03-30T14:02:41.735Z,2.55
2023-03-30T14:05:15.362Z,3.25
2023-03-30T14:07:47.413Z,1.88
2023-03-30T14:10:19.901Z,1.95
2023-03-30T14:12:53.117Z,1.23
2023-03-30T14:15:23.524Z,1.58
2023-03-30T14:17:54.674Z,0.88
2023-03-30T14:20:36.173Z,2.38
2023-03-30T14:23:05.639Z,2.45
2023-03-30T14:25:39.771Z,0.82
2023-03-30T14:28:14.388Z,1.27
2023-03-30T14:30:50.995Z,2.65
2023-03-30T14:33:19.734Z,1.10
2023-03-30T14:35:50.432Z,2.72
2023-03-30T14:38:23.985Z,1.83
2023-03-30T14:40:55.460Z,2.58
2023-03-30T14:43:26.015Z,1.88
2023-03-30T14:45:55.322Z,0.98
2023-03-30T14:48:28.168Z,0.70
2023-03-30T14:50:56.759Z,2.38
2023-03-30T14:53:28.153Z,3.05
2023-03-30T14:55:59.232Z,3.33
2023-03-30T14:58:31.243Z,3.33
2023-03-30T15:01:01.344Z,3.70
2023-03-30T15:03:34.317Z,2.97
2023-03-30T15:06:04.304Z,3.10
2023-03-30T15:08:35.124Z,2.63
2023-03-30T15:11:09.841Z,2.47
2023-03-30T15:13:41.712Z,3.88
2023-03-30T15:18:39.077Z,2.38
2023-03-30T15:21:10.525Z,2.50
2023-03-30T15:23:42.923Z,2.25
2023-03-30T15:26:13.796Z,2.67
2023-03-30T15:28:46.862Z,5.45
2023-03-30T15:31:16.508Z,2.22
2023-03-30T15:33:46.683Z,1.23
2023-03-30T15:36:18.648Z,3.30
2023-03-30T15:38:50.789Z,6.63
2023-03-30T15:41:24.592Z,3.35
2023-03-30T15:43:57.858Z,2.65
2023-03-30T15:46:28.071Z,2.33
2023-03-30T15:48:59.409Z,2.55
2023-03-30T15:51:33.071Z,2.20
2023-03-30T15:54:04.091Z,4.05
2023-03-30T15:56:39.840Z,3.43
2023-03-30T15:59:14.591Z,4.05
2023-03-30T16:01:45.393Z,4.00
2023-03-30T16:04:17.282Z,4.80
2023-03-30T16:09:16.213Z,6.75
2023-03-30T16:11:46.817Z,3.45
2023-03-30T16:14:17.973Z,3.60
2023-03-30T16:16:46.252Z,4.28
2023-03-30T16:19:16.076Z,2.88
2023-03-30T16:21:45.458Z,2.17
2023-03-30T16:24:14.198Z,4.25
2023-03-30T16:26:42.333Z,4.85
2023-03-30T16:29:20.349Z,4.10
2023-03-30T16:31:48.556Z,4.82
2023-03-30T16:34:16.676Z,2.05
2023-03-30T16:36:45.583Z,3.65
2023-03-30T16:39:18.781Z,2.72
2023-03-30T16:41:47.321Z,5.97
2023-03-30T16:44:17.271Z,3.63
2023-03-30T16:46:46.787Z,6.47
2023-03-30T16:49:16.648Z,3.60
2023-03-30T16:51:45.701Z,2.67
2023-03-30T16:54:23.569Z,6.38
2023-03-30T16:56:59.193Z,3.33
2023-03-30T16:59:30.586Z,5.25
2023-03-30T17:01:59.336Z,2.15
2023-03-30T17:04:27.566Z,4.10
2023-03-30T17:06:55.727Z,2.50
2023-03-30T17:09:24.336Z,4.03
2023-03-30T17:11:52.566Z,1.85
2023-03-30T17:14:23.211Z,2.20
2023-03-30T17:16:52.803Z,3.53
2023-03-30T17:19:20.980Z,3.67
2023-03-30T17:21:49.018Z,4.32
2023-03-30T17:24:17.082Z,3.35
2023-03-30T17:26:45.440Z,5.32
2023-03-30T17:29:13.566Z,2.53
2023-03-30T17:31:45.577Z,4.00
2023-03-30T17:34:15.713Z,2.88
2023-03-30T17:36:43.922Z,8.55
2023-03-30T17:39:15.226Z,3.05
2023-03-30T17:41:43.331Z,3.92
2023-03-30T17:44:11.430Z,4.68
2023-03-30T17:46:39.579Z,3.42
2023-03-30T17:49:18.153Z,2.08
2023-03-30T17:51:47.128Z,11.13
2023-03-30T17:54:15.500Z,5.43
2023-03-30T17:56:43.615Z,7.25
2023-03-30T17:59:12.012Z,7.20
2023-03-30T18:01:40.380Z,4.32
2023-03-30T18:04:09.196Z,3.85
2023-03-30T18:06:38.839Z,3.80
2023-03-30T18:09:15.674Z,5.32
2023-03-30T18:11:44.052Z,6.43
2023-03-30T18:14:12.194Z,5.70
2023-03-30T18:16:43.680Z,3.35
2023-03-30T18:19:12.528Z,3.63
2023-03-30T18:21:42.034Z,3.33
2023-03-30T18:24:10.117Z,4.80
2023-03-30T18:26:39.879Z,6.05
2023-03-30T18:29:16.392Z,5.57
2023-03-30T18:31:44.511Z,3.17
2023-03-30T18:34:12.656Z,3.55
2023-03-30T18:36:42.750Z,5.25
2023-03-30T18:39:16.212Z,3.42
2023-03-30T18:41:44.260Z,4.63
2023-03-30T18:44:13.015Z,3.10
2023-03-30T18:46:41.218Z,5.88
2023-03-30T18:49:13.518Z,5.28
2023-03-30T18:51:43.037Z,5.25
2023-03-30T18:54:11.112Z,4.35
2023-03-30T18:56:39.160Z,1.27
2023-03-30T18:59:07.589Z,5.78
2023-03-30T19:01:36.785Z,3.28
2023-03-30T19:04:04.880Z,4.28
2023-03-30T19:06:33.756Z,2.90
2023-03-30T19:09:03.269Z,4.43
2023-03-30T19:11:31.398Z,4.32
2023-03-30T19:14:00.383Z,3.42
2023-03-30T19:16:28.453Z,4.10
2023-03-30T19:18:56.527Z,5.60
2023-03-30T19:21:24.710Z,3.85
2023-03-30T19:23:52.766Z,4.65
2023-03-30T19:26:23.220Z,5.25
2023-03-30T19:28:51.447Z,4.82
2023-03-30T19:31:19.621Z,3.88
2023-03-30T19:33:47.710Z,5.07
2023-03-30T19:36:15.967Z,6.35
2023-03-30T19:38:44.325Z,2.42
2023-03-30T19:41:12.554Z,7.72
2023-03-30T19:43:42.011Z,4.05
2023-03-30T19:46:10.154Z,4.97
2023-03-30T19:48:38.279Z,6.90
2023-03-30T19:51:06.795Z,5.93
2023-03-30T19:53:35.412Z,7.30
2023-03-30T19:56:03.540Z,6.72
2023-03-30T19:58:31.771Z,7.05
2023-03-30T20:01:04.841Z,7.63
2023-03-30T20:03:35.171Z,4.63
2023-03-30T20:06:03.573Z,5.20
2023-03-30T20:08:32.842Z,7.47
2023-03-30T20:11:00.883Z,3.88
2023-03-30T20:13:28.970Z,5.57
2023-03-30T20:15:57.137Z,6.00
2023-03-30T20:18:26.619Z,5.53
2023-03-30T20:20:54.669Z,3.88
2023-03-30T20:23:22.731Z,3.88
2023-03-30T20:25:56.671Z,5.07
2023-03-30T20:28:24.753Z,5.70
2023-03-30T20:30:57.075Z,4.47
2023-03-30T20:33:27.573Z,3.92
2023-03-30T20:35:58.363Z,6.63
2023-03-30T20:38:26.550Z,5.72
2023-03-30T20:40:58.523Z,4.18
2023-03-30T20:43:27.027Z,4.78
2023-03-30T20:46:02.280Z,4.38
2023-03-30T20:48:33.493Z,6.93
2023-03-30T20:51:03.666Z,5.55
2023-03-30T20:53:32.222Z,3.83
2023-03-30T20:56:00.531Z,5.47
2023-03-30T20:58:29.482Z,5.90
2023-03-30T21:00:58.972Z,4.82
2023-03-30T21:03:29.251Z,5.07
2023-03-30T21:06:03.290Z,7.25
2023-03-30T21:08:32.536Z,3.97
2023-03-30T21:11:01.309Z,4.80
2023-03-30T21:13:30.195Z,7.75
2023-03-30T21:15:58.928Z,7.15
2023-03-30T21:18:27.442Z,8.57
2023-03-30T21:20:55.912Z,13.40
2023-03-30T21:23:26.791Z,11.65
2023-03-30T21:25:57.314Z,10.07
2023-03-30T21:28:27.157Z,6.32
2023-03-30T21:30:56.615Z,5.20
2023-03-30T21:33:24.976Z,5.70
2023-03-30T21:35:53.884Z,6.40
2023-03-30T21:38:23.004Z,7.60
2023-03-30T21:41:02.098Z,5.57
2023-03-30T21:43:32.098Z,4.75
2023-03-30T21:46:02.687Z,4.90
2023-03-30T21:48:32.705Z,6.30
2023-03-30T21:51:02.073Z,4.80
2023-03-30T21:53:31.203Z,5.15
2023-03-30T21:56:01.443Z,4.82
2023-03-30T21:58:30.657Z,8.13
2023-03-30T22:01:11.223Z,2.90
2023-03-30T22:03:41.518Z,3.63
2023-03-30T22:06:11.076Z,5.57
2023-03-30T22:08:39.444Z,4.50
2023-03-30T22:11:14.280Z,4.43
2023-03-30T22:13:42.702Z,5.38
2023-03-30T22:16:13.655Z,5.35
2023-03-30T22:18:42.141Z,3.20
2023-03-30T22:21:14.046Z,6.00
2023-03-30T22:26:11.965Z,7.63
2023-03-30T22:28:40.412Z,4.72
2023-03-30T22:31:08.880Z,5.72
2023-03-30T22:33:37.025Z,6.50
2023-03-30T22:36:07.239Z,4.47
2023-03-30T22:38:35.704Z,3.60
2023-03-30T22:41:07.344Z,5.45
2023-03-30T22:43:37.411Z,9.82
2023-03-30T22:46:06.048Z,7.22
2023-03-30T22:48:35.573Z,6.63
2023-03-30T22:51:04.513Z,5.07
2023-03-30T22:53:33.394Z,6.10
2023-03-30T22:56:01.887Z,6.30
2023-03-30T22:58:29.947Z,4.45
2023-03-30T23:01:02.569Z,6.47
2023-03-30T23:03:31.042Z,4.20
2023-03-30T23:06:01.108Z,5.63
2023-03-30T23:08:29.946Z,4.38
2023-03-30T23:11:04.501Z,4.10
2023-03-30T23:13:33.107Z,4.10
2023-03-30T23:16:02.575Z,5.22
2023-03-30T23:18:30.697Z,6.07
2023-03-30T23:20:59.017Z,3.10
2023-03-30T23:23:27.064Z,4.60
2023-03-30T23:25:55.156Z,7.38
2023-03-30T23:28:23.257Z,5.63
2023-03-30T23:30:51.360Z,2.20
2023-03-30T23:33:21.582Z,5.80
2023-03-30T23:35:50.789Z,3.90
2023-03-30T23:38:19.317Z,3.85
2023-03-30T23:40:47.516Z,3.63
2023-03-30T23:43:15.668Z,3.17
2023-03-30T23:45:44.223Z,4.57
2023-03-30T23:48:12.310Z,3.20
2023-03-30T23:50:41.725Z,3.55
2023-03-30T23:53:09.787Z,2.80
2023-03-30T23:55:38.314Z,3.33
2023-03-30T23:58:06.376Z,3.65
